Time;durP1;ratioP1;P1;durP2;ratioP2;P2;SDS_P1;SDS_P2;PMS_P1;PMS_P2;Temp;Humidity;BMP_temperature;BMP_pressure;BME280_temperature;BME280_humidity;BME280_pressure;Samples;Min_cycle;Max_cycle;Signal;HPM_P1;HPM_P2
2022/01/06 00:01:40;;;;;;;4.53;1.88;;;3.00;99.90;;;;;;5098112;27;20052;-79
2022/01/06 00:04:09;;;;;;;3.17;1.88;;;3.50;99.90;;;;;;5113428;27;20040;-78
2022/01/06 00:06:50;;;;;;;1.55;1.40;;;3.50;99.90;;;;;;5097671;27;20147;-79
2022/01/06 00:09:38;;;;;;;6.57;1.67;;;3.50;99.90;;;;;;5098662;27;20051;-78
2022/01/06 00:12:10;;;;;;;4.22;1.92;;;3.50;99.90;;;;;;5095451;27;20418;-79
2022/01/06 00:26:01;;;;;;;3.78;2.60;;;3.40;99.90;;;;;;5116847;27;20043;-79
2022/01/06 00:28:30;;;;;;;4.63;1.95;;;3.50;99.90;;;;;;5115588;27;20071;-78
2022/01/06 00:31:06;;;;;;;6.47;2.45;;;3.40;99.90;;;;;;5096188;27;20047;-79
2022/01/06 00:33:40;;;;;;;4.95;2.70;;;3.30;99.90;;;;;;5098366;27;20040;-78
2022/01/06 00:36:11;;;;;;;7.53;2.70;;;3.30;99.90;;;;;;5097833;27;20520;-78
2022/01/06 00:38:40;;;;;;;3.60;1.73;;;2.90;99.90;;;;;;5098745;27;20055;-78
2022/01/06 00:41:16;;;;;;;4.63;2.15;;;3.30;99.90;;;;;;5114772;27;20081;-78
2022/01/06 00:43:45;;;;;;;4.90;2.53;;;3.30;99.90;;;;;;5115436;27;20056;-78
2022/01/06 00:46:14;;;;;;;6.13;2.70;;;4.10;99.90;;;;;;5115286;27;20044;-79
2022/01/06 00:48:43;;;;;;;3.30;2.00;;;3.70;99.90;;;;;;5107119;27;20180;-79
2022/01/06 00:51:22;;;;;;;4.53;1.70;;;3.30;99.90;;;;;;5135289;27;20108;-80
2022/01/06 00:54:18;;;;;;;10.50;2.58;;;3.80;99.90;;;;;;5112857;27;20060;-78
2022/01/06 00:56:53;;;;;;;4.93;2.53;;;3.30;99.90;;;;;;5114828;27;20051;-79
2022/01/06 00:59:21;;;;;;;2.88;1.98;;;3.20;99.90;;;;;;5100884;27;20047;-79
2022/01/06 01:01:50;;;;;;;9.27;2.22;;;3.30;99.90;;;;;;5097506;27;20105;-79
2022/01/06 01:04:47;;;;;;;2.50;1.80;;;3.30;99.90;;;;;;5117311;27;20039;-79
2022/01/06 01:07:14;;;;;;;3.35;1.95;;;3.20;99.90;;;;;;5098602;27;20047;-79
2022/01/06 01:09:49;;;;;;;3.13;1.98;;;3.20;99.90;;;;;;5113436;27;20067;-79
2022/01/06 01:12:27;;;;;;;7.45;2.50;;;3.20;99.90;;;;;;5097732;27;20032;-78
2022/01/06 01:15:09;;;;;;;7.32;2.20;;;3.20;99.90;;;;;;5117729;27;20042;-78
2022/01/06 01:17:40;;;;;;;4.10;1.88;;;2.40;99.90;;;;;;5100254;27;20045;-78
2022/01/06 01:20:10;;;;;;;3.23;2.00;;;3.10;99.90;;;;;;5098843;27;20062;-78
2022/01/06 01:22:39;;;;;;;5.75;2.50;;;3.10;99.90;;;;;;5102073;27;20063;-79
2022/01/06 01:25:11;;;;;;;3.47;1.80;;;3.20;99.90;;;;;;5098701;27;20044;-79
2022/01/06 01:28:04;;;;;;;2.97;1.95;;;3.70;99.90;;;;;;5098499;27;20067;-78
2022/01/06 01:31:18;;;;;;;7.43;2.38;;;2.50;99.90;;;;;;5112415;27;20532;-79
2022/01/06 01:33:26;;;;;;;5.30;2.17;;;3.10;99.90;;;;;;5103475;27;20052;-79
2022/01/06 01:35:57;;;;;;;2.30;1.65;;;4.00;99.90;;;;;;5119270;27;20040;-79
2022/01/06 01:38:36;;;;;;;6.60;1.58;;;3.40;99.90;;;;;;5094068;27;20222;-78
2022/01/06 01:41:13;;;;;;;5.60;1.98;;;3.30;99.90;;;;;;5096713;27;20652;-79
2022/01/06 01:43:46;;;;;;;4.75;2.17;;;3.10;99.90;;;;;;5097647;27;20028;-79
2022/01/06 01:46:42;;;;;;;5.40;2.45;;;3.10;99.90;;;;;;5096940;27;20051;-79
2022/01/06 01:51:52;;;;;;;2.08;1.30;;;2.20;99.90;;;;;;5114293;27;20588;-79
2022/01/06 01:54:25;;;;;;;5.28;1.83;;;3.10;99.90;;;;;;5095493;27;20097;-79
2022/01/06 01:57:00;;;;;;;4.03;1.80;;;3.30;99.90;;;;;;5093167;27;20039;-79
2022/01/06 01:59:45;;;;;;;4.18;1.85;;;3.10;99.90;;;;;;5113989;27;20414;-79
2022/01/06 02:02:27;;;;;;;11.52;2.03;;;3.10;99.90;;;;;;5097311;27;20070;-79
2022/01/06 02:05:08;;;;;;;4.65;2.08;;;3.10;99.90;;;;;;5115169;27;20105;-79
2022/01/06 02:07:42;;;;;;;10.38;2.17;;;3.00;99.90;;;;;;5093777;27;20513;-79
2022/01/06 02:10:18;;;;;;;5.47;1.75;;;3.00;99.90;;;;;;5112662;27;20032;-78
2022/01/06 02:12:56;;;;;;;2.60;2.17;;;3.00;99.90;;;;;;5094540;27;20055;-79
2022/01/06 02:15:27;;;;;;;8.95;1.85;;;3.80;99.90;;;;;;5092329;27;20040;-79
2022/01/06 02:17:56;;;;;;;2.60;1.38;;;3.00;99.90;;;;;;5094609;27;20092;-78
2022/01/06 02:20:44;;;;;;;6.13;1.77;;;3.10;99.90;;;;;;5090735;27;20036;-79
2022/01/06 02:23:12;;;;;;;1.55;1.17;;;2.10;99.90;;;;;;5115235;27;20521;-79
2022/01/06 02:25:47;;;;;;;6.32;2.05;;;3.00;99.90;;;;;;5091689;27;20043;-78
2022/01/06 02:28:33;;;;;;;3.03;2.10;;;3.00;99.90;;;;;;5093865;27;20047;-78
2022/01/06 02:31:24;;;;;;;8.52;2.05;;;3.20;99.90;;;;;;5096123;27;20054;-78
2022/01/06 02:33:53;;;;;;;6.82;2.38;;;3.40;99.90;;;;;;5099692;27;20043;-79
2022/01/06 02:36:27;;;;;;;4.72;2.38;;;2.50;99.90;;;;;;5094915;27;20047;-78
2022/01/06 02:38:59;;;;;;;2.97;1.95;;;3.00;99.90;;;;;;5101008;27;20530;-78
2022/01/06 02:41:32;;;;;;;4.82;2.45;;;3.30;99.90;;;;;;5098775;27;20531;-78
2022/01/06 02:44:06;;;;;;;6.30;2.47;;;3.00;99.90;;;;;;5097614;27;20051;-78
2022/01/06 02:46:40;;;;;;;4.72;1.98;;;2.60;99.90;;;;;;5097460;27;20044;-78
2022/01/06 02:49:16;;;;;;;3.67;2.47;;;3.00;99.90;;;;;;5098062;27;20134;-79
2022/01/06 02:52:06;;;;;;;5.93;2.85;;;3.50;99.90;;;;;;5115734;27;20040;-79
2022/01/06 02:54:32;;;;;;;3.60;1.85;;;2.90;99.90;;;;;;5097169;27;20116;-78
2022/01/06 02:57:11;;;;;;;6.55;1.90;;;2.90;99.90;;;;;;5098910;27;20611;-79
2022/01/06 02:59:43;;;;;;;3.97;2.47;;;2.90;99.90;;;;;;5096464;27;20035;-78
2022/01/06 03:02:12;;;;;;;13.27;2.67;;;2.90;99.90;;;;;;5097227;27;20043;-79
2022/01/06 03:04:43;;;;;;;1.70;1.27;;;2.90;99.90;;;;;;5099668;27;20135;-78
2022/01/06 03:07:16;;;;;;;4.07;2.45;;;2.80;99.90;;;;;;5100540;27;20043;-79
2022/01/06 03:09:55;;;;;;;9.82;2.25;;;2.80;99.90;;;;;;5100553;27;20040;-78
2022/01/06 03:15:15;;;;;;;4.47;1.70;;;2.80;99.90;;;;;;5106130;27;20052;-78
2022/01/06 03:17:55;;;;;;;3.92;1.80;;;3.00;99.90;;;;;;5099445;27;20956;-78
2022/01/06 03:20:25;;;;;;;8.02;2.53;;;2.80;99.90;;;;;;5100438;27;20055;-78
2022/01/06 03:22:58;;;;;;;2.65;2.00;;;3.40;99.90;;;;;;5094391;27;20040;-78
2022/01/06 03:25:33;;;;;;;3.20;1.60;;;2.80;99.90;;;;;;5095052;27;20059;-78
2022/01/06 03:28:02;;;;;;;6.70;2.30;;;3.10;99.90;;;;;;5096641;27;20101;-78
2022/01/06 03:30:31;;;;;;;3.60;1.70;;;2.70;99.90;;;;;;5096783;27;20049;-77
2022/01/06 03:33:09;;;;;;;10.50;2.65;;;2.70;99.90;;;;;;5097304;27;20059;-79
2022/01/06 03:35:41;;;;;;;3.95;2.03;;;3.10;99.90;;;;;;5115766;27;20071;-78
2022/01/06 03:38:16;;;;;;;2.88;1.70;;;2.50;99.90;;;;;;5098861;27;20101;-78
2022/01/06 03:40:48;;;;;;;4.30;2.38;;;2.70;99.90;;;;;;5116006;27;20086;-78
2022/01/06 03:43:17;;;;;;;7.10;2.40;;;2.70;99.90;;;;;;5097684;27;20032;-78
2022/01/06 03:45:46;;;;;;;3.58;1.63;;;2.70;99.90;;;;;;5097424;27;20052;-78
2022/01/06 03:48:41;;;;;;;6.47;1.70;;;2.70;99.90;;;;;;5100529;27;20451;-78
2022/01/06 03:51:07;;;;;;;2.67;1.85;;;2.60;99.90;;;;;;5098965;27;20043;-77
2022/01/06 03:53:41;;;;;;;2.20;1.65;;;2.90;99.90;;;;;;5096018;27;20044;-78
2022/01/06 03:56:10;;;;;;;3.47;1.88;;;2.70;99.90;;;;;;5100994;27;20058;-78
2022/01/06 03:58:44;;;;;;;9.10;2.53;;;2.70;99.90;;;;;;5120897;27;20582;-78
2022/01/06 04:01:21;;;;;;;4.07;2.47;;;2.60;99.90;;;;;;5118481;27;20043;-78
2022/01/06 04:03:56;;;;;;;4.97;2.35;;;2.70;99.90;;;;;;5097832;27;20040;-78
2022/01/06 04:06:22;;;;;;;4.90;2.35;;;2.50;99.90;;;;;;5094824;27;20058;-78
2022/01/06 04:09:10;;;;;;;6.28;2.40;;;2.60;99.90;;;;;;5116890;27;20340;-78
2022/01/06 04:11:41;;;;;;;4.90;2.58;;;2.90;99.90;;;;;;5097183;27;20113;-77
2022/01/06 04:17:09;;;;;;;7.07;3.03;;;2.60;99.90;;;;;;5118213;27;21133;-78
2022/01/06 04:19:43;;;;;;;8.85;3.08;;;2.50;99.90;;;;;;5097940;27;20584;-78
2022/01/06 04:22:21;;;;;;;4.50;2.20;;;2.60;99.90;;;;;;5095279;27;20039;-78
2022/01/06 04:25:02;;;;;;;13.07;2.28;;;2.50;99.90;;;;;;5093560;27;20045;-78
2022/01/06 04:27:41;;;;;;;5.97;2.25;;;2.60;99.90;;;;;;5096302;27;20126;-78
2022/01/06 04:33:59;;;;;;;7.43;2.38;;;2.50;99.90;;;;;;5074893;28;20962;-79
2022/01/06 04:36:25;;;;;;;7.15;2.45;;;2.50;99.90;;;;;;5069937;28;20077;-79
2022/01/06 04:38:50;;;;;;;4.88;2.50;;;2.50;99.90;;;;;;5074652;28;20477;-79
2022/01/06 04:41:16;;;;;;;5.85;2.53;;;2.60;99.90;;;;;;5071214;28;20173;-79
2022/01/06 04:43:42;;;;;;;7.60;4.35;;;2.50;99.90;;;;;;5068331;28;20072;-79
2022/01/06 04:46:07;;;;;;;4.22;2.17;;;2.50;99.90;;;;;;5100224;27;20047;-80
2022/01/06 04:48:35;;;;;;;4.32;2.58;;;2.50;99.90;;;;;;5102483;27;20573;-79
2022/01/06 04:51:01;;;;;;;2.70;1.90;;;2.50;99.90;;;;;;5077121;28;20041;-79
2022/01/06 04:53:27;;;;;;;3.08;1.58;;;2.50;99.90;;;;;;5068217;28;20494;-79
2022/01/06 04:55:54;;;;;;;5.85;2.25;;;2.40;99.90;;;;;;5074745;28;20493;-79
2022/01/06 04:58:20;;;;;;;7.30;2.80;;;2.40;99.90;;;;;;5071229;28;20068;-79
2022/01/06 05:00:45;;;;;;;3.35;2.33;;;2.40;99.90;;;;;;5072365;28;20388;-79
2022/01/06 05:03:11;;;;;;;12.73;2.90;;;2.40;99.90;;;;;;5071602;28;20049;-80
2022/01/06 05:05:37;;;;;;;9.70;2.60;;;2.30;99.90;;;;;;5068871;27;20045;-79
2022/01/06 05:08:03;;;;;;;8.10;2.78;;;2.40;99.90;;;;;;5100006;27;20383;-80
2022/01/06 05:10:28;;;;;;;7.78;2.55;;;2.40;99.90;;;;;;5069908;27;20680;-79
2022/01/06 05:12:54;;;;;;;4.18;2.28;;;2.30;99.90;;;;;;5067269;28;20044;-79
2022/01/06 05:15:20;;;;;;;6.78;3.70;;;2.30;99.90;;;;;;5072542;28;20163;-80
2022/01/06 05:17:45;;;;;;;5.25;2.42;;;2.30;99.90;;;;;;5067979;28;20095;-80
2022/01/06 05:20:12;;;;;;;8.80;2.78;;;2.30;99.90;;;;;;5069992;28;20041;-80
2022/01/06 05:22:43;;;;;;;8.90;2.90;;;2.30;99.90;;;;;;5072070;28;20039;-80
2022/01/06 05:25:10;;;;;;;3.17;2.10;;;2.30;99.90;;;;;;5071881;28;20052;-80
2022/01/06 05:27:36;;;;;;;7.20;2.92;;;2.80;99.90;;;;;;5070511;28;20044;-80
2022/01/06 05:30:02;;;;;;;7.43;2.88;;;2.30;99.90;;;;;;5072278;28;20048;-80
2022/01/06 05:32:27;;;;;;;3.83;3.15;;;2.30;99.90;;;;;;5074264;28;20059;-80
2022/01/06 05:34:53;;;;;;;6.50;3.15;;;2.30;99.90;;;;;;5073481;28;20525;-80
2022/01/06 05:37:19;;;;;;;23.60;7.15;;;2.30;99.90;;;;;;5074237;28;20132;-80
2022/01/06 05:39:45;;;;;;;7.78;4.10;;;2.30;99.90;;;;;;5069973;28;20076;-80
2022/01/06 05:42:13;;;;;;;10.65;3.60;;;2.30;99.90;;;;;;5070610;28;20045;-80
2022/01/06 05:44:40;;;;;;;5.90;3.35;;;2.40;99.90;;;;;;5063629;28;20045;-80
2022/01/06 05:47:06;;;;;;;8.48;3.17;;;2.20;99.90;;;;;;5085931;27;20056;-80
2022/01/06 05:49:33;;;;;;;8.43;3.08;;;2.20;99.90;;;;;;5060006;28;20048;-80
2022/01/06 05:51:59;;;;;;;10.18;3.15;;;2.20;99.90;;;;;;5060926;28;20087;-79
2022/01/06 05:54:25;;;;;;;7.50;3.55;;;2.20;99.90;;;;;;5056394;28;20049;-79
2022/01/06 05:56:50;;;;;;;8.18;3.53;;;2.20;99.90;;;;;;5060051;28;20045;-81
2022/01/06 05:59:17;;;;;;;18.88;6.07;;;2.20;99.90;;;;;;5057349;28;20165;-83
2022/01/06 06:01:43;;;;;;;13.38;7.38;;;2.20;99.90;;;;;;5061105;28;20041;-81
2022/01/06 06:04:09;;;;;;;26.52;10.48;;;2.20;99.90;;;;;;5058767;28;20044;-79
2022/01/06 06:06:35;;;;;;;19.65;9.00;;;2.70;99.90;;;;;;5057752;28;20107;-85
2022/01/06 06:09:00;;;;;;;12.32;4.47;;;2.30;99.90;;;;;;5055001;28;20050;-79
2022/01/06 06:11:26;;;;;;;8.90;4.00;;;2.80;99.90;;;;;;5056411;28;20041;-80
2022/01/06 06:13:52;;;;;;;10.25;3.53;;;2.40;99.90;;;;;;5054016;28;20045;-79
2022/01/06 06:16:17;;;;;;;5.25;2.90;;;2.40;99.90;;;;;;5091475;27;20067;-80
2022/01/06 06:18:43;;;;;;;10.82;3.35;;;2.80;99.90;;;;;;5063424;28;20520;-80
2022/01/06 06:21:09;;;;;;;14.68;2.45;;;2.90;99.90;;;;;;5066235;28;20053;-80
2022/01/06 06:23:35;;;;;;;5.22;2.17;;;2.40;99.90;;;;;;5065444;28;20068;-79
2022/01/06 06:26:01;;;;;;;6.18;3.28;;;2.50;99.90;;;;;;5063609;28;20063;-80
2022/01/06 06:28:26;;;;;;;2.60;2.05;;;2.50;99.90;;;;;;5064106;28;20079;-80
2022/01/06 06:30:52;;;;;;;5.75;2.88;;;2.50;99.90;;;;;;5055341;28;20648;-79
2022/01/06 06:33:18;;;;;;;3.35;1.98;;;2.50;99.90;;;;;;5057138;28;20061;-80
2022/01/06 06:35:43;;;;;;;4.60;2.28;;;2.60;99.90;;;;;;5056090;28;20474;-79
2022/01/06 06:38:09;;;;;;;2.97;1.63;;;2.60;99.90;;;;;;5083596;27;20040;-80
2022/01/06 06:40:35;;;;;;;5.90;3.67;;;2.60;99.90;;;;;;5058698;28;20407;-79
2022/01/06 06:43:01;;;;;;;5.72;2.83;;;2.60;99.90;;;;;;5060496;28;20110;-79
2022/01/06 06:45:27;;;;;;;2.83;1.77;;;2.70;99.90;;;;;;5060375;28;20099;-80
2022/01/06 06:47:53;;;;;;;6.20;2.35;;;2.70;99.90;;;;;;5052474;28;20438;-80
2022/01/06 06:50:21;;;;;;;5.85;2.63;;;2.60;99.90;;;;;;5088484;27;20048;-80
2022/01/06 06:52:47;;;;;;;6.63;2.75;;;2.60;99.90;;;;;;5054571;28;20048;-80
2022/01/06 06:55:14;;;;;;;8.57;3.20;;;2.60;99.90;;;;;;5056957;28;20038;-79
2022/01/06 06:57:40;;;;;;;4.82;1.90;;;2.70;99.90;;;;;;5085728;27;20044;-80
2022/01/06 07:00:08;;;;;;;7.38;1.95;;;2.60;99.90;;;;;;5054962;28;20555;-80
2022/01/06 07:02:34;;;;;;;9.15;3.03;;;2.60;99.90;;;;;;5059455;28;20045;-80
2022/01/06 07:05:00;;;;;;;5.82;2.45;;;2.60;99.90;;;;;;5056221;28;20049;-80
2022/01/06 07:07:26;;;;;;;9.18;3.22;;;2.60;99.90;;;;;;5054829;28;20053;-79
2022/01/06 07:09:52;;;;;;;5.88;2.47;;;2.50;99.90;;;;;;5091661;27;20537;-79
2022/01/06 07:12:18;;;;;;;4.88;2.60;;;2.50;99.90;;;;;;5063723;28;20060;-81
2022/01/06 07:14:43;;;;;;;3.38;2.00;;;2.80;99.90;;;;;;5067374;28;20043;-79
2022/01/06 07:17:09;;;;;;;9.65;3.30;;;2.50;99.90;;;;;;5056327;28;20052;-80
2022/01/06 07:19:35;;;;;;;4.57;3.10;;;2.50;99.90;;;;;;5055474;28;20046;-80
2022/01/06 07:22:01;;;;;;;6.63;3.70;;;2.50;99.90;;;;;;5058473;28;20033;-80
2022/01/06 07:24:26;;;;;;;7.90;3.33;;;2.60;99.90;;;;;;5061523;28;20036;-79
2022/01/06 07:26:52;;;;;;;6.00;3.78;;;2.60;99.90;;;;;;5055537;28;20045;-78
2022/01/06 07:29:18;;;;;;;6.18;3.08;;;3.20;99.90;;;;;;5057659;28;20045;-79
2022/01/06 07:31:43;;;;;;;8.32;2.80;;;2.80;99.90;;;;;;5056384;28;20045;-79
2022/01/06 07:34:09;;;;;;;7.68;2.95;;;2.70;99.90;;;;;;5054842;28;20048;-81
2022/01/06 07:36:35;;;;;;;9.85;4.75;;;2.70;99.90;;;;;;5053070;28;20483;-79
2022/01/06 07:39:02;;;;;;;6.60;4.22;;;2.50;99.90;;;;;;5085197;27;20664;-79
2022/01/06 07:41:28;;;;;;;10.30;4.28;;;2.70;99.90;;;;;;5053978;28;20037;-79
2022/01/06 07:43:54;;;;;;;8.23;3.88;;;2.50;99.90;;;;;;5049670;28;20041;-79
2022/01/06 07:46:19;;;;;;;9.88;3.83;;;2.60;99.90;;;;;;5057080;28;20140;-79
2022/01/06 07:48:55;;;;;;;9.75;4.95;;;2.60;99.90;;;;;;5053330;28;20040;-79
2022/01/06 07:51:21;;;;;;;7.75;3.47;;;2.60;99.90;;;;;;5055565;28;20045;-79
2022/01/06 07:53:47;;;;;;;16.55;3.90;;;2.60;99.90;;;;;;5055513;28;20465;-79
2022/01/06 07:56:13;;;;;;;6.68;3.70;;;2.80;99.90;;;;;;5055140;28;20049;-80
2022/01/06 07:58:38;;;;;;;6.30;3.90;;;2.70;99.90;;;;;;5091012;27;20064;-88
2022/01/06 08:01:04;;;;;;;6.43;3.05;;;2.80;99.90;;;;;;5061218;28;20033;-83
2022/01/06 08:03:30;;;;;;;10.43;4.57;;;2.80;99.90;;;;;;5061050;28;20043;-83
2022/01/06 08:05:57;;;;;;;7.70;4.10;;;2.80;99.90;;;;;;5062938;28;20049;-83
2022/01/06 08:08:22;;;;;;;13.48;4.50;;;2.90;99.90;;;;;;5060445;28;20061;-83
2022/01/06 08:10:48;;;;;;;7.38;4.55;;;2.90;99.90;;;;;;5087924;27;20415;-83
2022/01/06 08:13:14;;;;;;;7.15;3.72;;;2.90;99.90;;;;;;5062255;28;20545;-83
2022/01/06 08:15:40;;;;;;;9.15;4.07;;;3.00;99.90;;;;;;5059109;28;20559;-83
2022/01/06 08:18:06;;;;;;;9.90;4.80;;;3.00;99.90;;;;;;5060914;28;20136;-83
2022/01/06 08:20:31;;;;;;;6.15;4.22;;;3.00;99.90;;;;;;5054105;28;20439;-83
2022/01/06 08:22:57;;;;;;;7.70;3.97;;;3.10;99.90;;;;;;5059162;28;20091;-83
2022/01/06 08:25:23;;;;;;;14.60;4.68;;;3.10;99.90;;;;;;5055727;28;20045;-83
2022/01/06 08:27:48;;;;;;;13.63;4.28;;;3.10;99.90;;;;;;5087907;27;20037;-84
2022/01/06 08:30:14;;;;;;;6.07;4.47;;;3.20;99.90;;;;;;5090267;27;20037;-83
2022/01/06 08:32:40;;;;;;;7.53;3.38;;;3.70;99.90;;;;;;5060342;28;20139;-83
2022/01/06 08:35:06;;;;;;;11.98;4.13;;;3.30;99.90;;;;;;5056175;28;20045;-83
2022/01/06 08:37:31;;;;;;;6.10;3.58;;;3.40;99.90;;;;;;5058044;28;20047;-83
2022/01/06 08:39:57;;;;;;;6.85;4.10;;;3.70;99.90;;;;;;5060322;28;20045;-83
2022/01/06 08:42:23;;;;;;;6.55;4.22;;;3.30;99.90;;;;;;5087418;27;20091;-82
2022/01/06 08:44:49;;;;;;;5.75;3.40;;;3.40;99.90;;;;;;5054974;28;20420;-83
2022/01/06 08:47:15;;;;;;;9.35;4.53;;;3.40;99.90;;;;;;5053181;28;20045;-83
2022/01/06 08:49:42;;;;;;;16.42;4.80;;;3.50;99.90;;;;;;5053030;28;20469;-84
2022/01/06 08:52:08;;;;;;;7.90;4.22;;;3.60;99.90;;;;;;5053776;28;20107;-83
2022/01/06 08:54:34;;;;;;;7.75;3.88;;;3.60;99.90;;;;;;5055382;28;20045;-83
2022/01/06 08:57:02;;;;;;;8.57;4.22;;;3.60;99.90;;;;;;5054226;28;20049;-84
2022/01/06 08:59:28;;;;;;;7.97;3.55;;;3.60;99.90;;;;;;5062717;28;20120;-83
2022/01/06 09:01:54;;;;;;;5.38;3.42;;;3.60;99.90;;;;;;5063696;28;20128;-84
2022/01/06 09:04:20;;;;;;;7.70;3.63;;;3.60;99.90;;;;;;5068821;28;20055;-84
2022/01/06 09:06:48;;;;;;;8.55;3.67;;;3.70;99.90;;;;;;5065707;28;20090;-84
2022/01/06 09:09:14;;;;;;;7.80;4.78;;;3.80;99.90;;;;;;5062886;28;20582;-84
2022/01/06 09:11:40;;;;;;;5.47;2.83;;;3.80;99.90;;;;;;5064598;28;20128;-84
2022/01/06 09:14:06;;;;;;;8.82;5.03;;;3.80;99.90;;;;;;5061889;28;20045;-84
2022/01/06 09:16:31;;;;;;;6.15;3.67;;;3.80;99.90;;;;;;5064003;28;20048;-84
2022/01/06 09:18:57;;;;;;;21.45;5.15;;;3.90;99.90;;;;;;5063209;28;20044;-84
2022/01/06 09:21:24;;;;;;;7.40;4.07;;;3.90;99.90;;;;;;5063622;28;20094;-84
2022/01/06 09:23:54;;;;;;;7.53;4.20;;;4.00;99.90;;;;;;5062064;28;20176;-83
2022/01/06 09:26:20;;;;;;;11.32;3.85;;;4.10;99.90;;;;;;5093577;27;20047;-83
2022/01/06 09:28:46;;;;;;;13.18;4.97;;;4.10;99.90;;;;;;5061442;28;20072;-84
2022/01/06 09:31:12;;;;;;;10.57;4.47;;;4.10;99.90;;;;;;5090769;27;20629;-84
2022/01/06 09:33:38;;;;;;;11.85;5.07;;;4.10;99.90;;;;;;5059974;28;20065;-83
2022/01/06 09:36:04;;;;;;;7.43;5.35;;;4.20;99.90;;;;;;5070959;28;20644;-84
2022/01/06 09:38:30;;;;;;;8.95;5.05;;;4.20;99.90;;;;;;5066181;28;20037;-84
2022/01/06 09:40:56;;;;;;;9.98;5.28;;;4.20;99.90;;;;;;5066608;28;20041;-84
2022/01/06 09:43:26;;;;;;;16.30;6.68;;;4.30;99.90;;;;;;5065550;28;20045;-84
2022/01/06 09:45:52;;;;;;;12.43;4.63;;;4.40;99.90;;;;;;5060236;28;20528;-84
2022/01/06 09:48:22;;;;;;;10.02;5.07;;;4.40;99.90;;;;;;5069195;28;20033;-84
2022/01/06 09:50:48;;;;;;;10.27;5.72;;;4.40;99.90;;;;;;5080911;28;20047;-84
2022/01/06 09:53:16;;;;;;;7.57;4.72;;;4.40;99.90;;;;;;5065199;28;20048;-84
2022/01/06 09:55:42;;;;;;;11.85;4.72;;;4.50;99.90;;;;;;5066078;28;20040;-84
2022/01/06 09:58:08;;;;;;;11.50;4.13;;;4.60;99.90;;;;;;5063929;28;20177;-84
2022/01/06 10:00:35;;;;;;;5.93;3.40;;;4.60;99.90;;;;;;5068473;28;20123;-83
2022/01/06 10:03:04;;;;;;;8.25;3.10;;;4.70;99.90;;;;;;5060972;28;20604;-84
2022/01/06 10:05:43;;;;;;;10.75;3.28;;;4.70;99.90;;;;;;5067550;28;20051;-84
2022/01/06 10:08:10;;;;;;;5.32;2.50;;;4.80;99.90;;;;;;5077905;28;20090;-84
2022/01/06 10:10:36;;;;;;;7.18;3.42;;;4.80;99.90;;;;;;5061463;28;20041;-84
2022/01/06 10:13:09;;;;;;;5.50;3.15;;;4.80;99.90;;;;;;5067988;28;20527;-84
2022/01/06 10:15:37;;;;;;;6.90;3.35;;;4.80;99.90;;;;;;5066450;28;20041;-84
2022/01/06 10:18:16;;;;;;;7.72;3.72;;;4.90;99.90;;;;;;5062459;28;20433;-84
2022/01/06 10:20:43;;;;;;;6.50;3.90;;;4.90;99.90;;;;;;5065316;28;20463;-84
2022/01/06 10:23:15;;;;;;;7.63;4.00;;;5.00;99.90;;;;;;5097355;27;20049;-84
2022/01/06 10:25:48;;;;;;;7.03;4.13;;;5.00;99.90;;;;;;5062720;28;20037;-84
2022/01/06 10:28:21;;;;;;;11.20;4.05;;;5.10;99.90;;;;;;5066685;28;20098;-83
2022/01/06 10:30:48;;;;;;;7.55;4.28;;;5.20;99.90;;;;;;5100400;27;20048;-84
2022/01/06 10:33:18;;;;;;;5.55;3.25;;;5.30;99.90;;;;;;5058777;28;20064;-84
2022/01/06 10:35:45;;;;;;;6.72;3.83;;;5.30;99.90;;;;;;5065823;28;20045;-84
2022/01/06 10:38:11;;;;;;;9.13;4.28;;;5.30;99.90;;;;;;5059479;28;20037;-84
2022/01/06 10:40:38;;;;;;;7.82;4.40;;;5.40;99.90;;;;;;5060454;28;20037;-84
2022/01/06 10:43:06;;;;;;;7.20;3.55;;;5.40;99.90;;;;;;5063607;28;20041;-84
2022/01/06 10:45:34;;;;;;;8.50;4.70;;;5.50;99.90;;;;;;5060659;28;20447;-84
2022/01/06 10:48:02;;;;;;;10.07;4.72;;;5.50;99.90;;;;;;5059331;28;20077;-84
2022/01/06 10:50:31;;;;;;;8.18;5.32;;;5.60;99.90;;;;;;5068817;28;20053;-84
2022/01/06 10:53:00;;;;;;;12.88;6.57;;;5.60;99.90;;;;;;5060378;28;20613;-84
2022/01/06 10:55:30;;;;;;;12.57;4.88;;;5.60;99.90;;;;;;5064230;28;20052;-84
2022/01/06 10:58:01;;;;;;;10.90;4.82;;;5.60;99.90;;;;;;5062160;28;20045;-84
2022/01/06 11:00:35;;;;;;;5.45;4.18;;;5.60;99.90;;;;;;5069938;28;20190;-84
2022/01/06 11:03:12;;;;;;;7.68;3.88;;;5.70;99.90;;;;;;5067757;28;20044;-84
2022/01/06 11:05:41;;;;;;;10.35;3.70;;;5.80;99.90;;;;;;5064650;28;20041;-84
2022/01/06 11:08:08;;;;;;;13.32;4.53;;;5.80;99.90;;;;;;5069721;28;20029;-84
2022/01/06 11:10:36;;;;;;;6.35;3.72;;;5.80;99.90;;;;;;5062103;28;20522;-84
2022/01/06 11:13:04;;;;;;;10.07;3.10;;;5.90;99.90;;;;;;5064375;28;20037;-84
2022/01/06 11:15:30;;;;;;;7.15;2.70;;;5.90;99.90;;;;;;5059705;28;20611;-90
2022/01/06 11:17:56;;;;;;;7.07;2.30;;;5.90;99.90;;;;;;5062428;28;20390;-82
2022/01/06 11:20:27;;;;;;;2.65;1.63;;;5.90;99.90;;;;;;5058391;28;20053;-82
2022/01/06 11:22:54;;;;;;;5.18;3.10;;;5.90;99.90;;;;;;5053142;28;20072;-81
2022/01/06 11:25:36;;;;;;;8.48;3.13;;;6.00;99.90;;;;;;5055937;28;20098;-80
2022/01/06 11:28:12;;;;;;;6.30;3.47;;;6.00;99.90;;;;;;5058824;28;20044;-81
2022/01/06 11:30:49;;;;;;;7.40;3.42;;;6.10;99.90;;;;;;5059436;28;20041;-80
2022/01/06 11:33:15;;;;;;;5.78;3.25;;;6.10;99.90;;;;;;5058370;28;20672;-80
2022/01/06 11:35:50;;;;;;;7.07;3.65;;;6.10;99.90;;;;;;5055243;28;20566;-80
2022/01/06 11:38:19;;;;;;;7.53;3.42;;;6.20;99.90;;;;;;5058594;28;20045;-80
2022/01/06 11:40:50;;;;;;;5.18;2.58;;;6.30;99.90;;;;;;5055499;28;20044;-80
2022/01/06 11:43:17;;;;;;;3.80;2.47;;;6.30;99.90;;;;;;5059835;28;20041;-80
2022/01/06 11:45:43;;;;;;;8.50;2.70;;;6.30;99.90;;;;;;5059284;28;20464;-80
2022/01/06 11:48:14;;;;;;;9.10;2.63;;;6.30;99.90;;;;;;5056380;28;20041;-80
2022/01/06 11:50:45;;;;;;;6.90;3.05;;;6.30;99.90;;;;;;5055083;28;20049;-80
2022/01/06 11:53:12;;;;;;;5.75;1.75;;;6.30;99.90;;;;;;5056654;28;20053;-83
2022/01/06 11:55:44;;;;;;;3.55;2.17;;;6.30;99.90;;;;;;5064463;28;20048;-84
2022/01/06 11:58:13;;;;;;;4.72;2.30;;;6.30;99.90;;;;;;5066615;28;20106;-83
2022/01/06 12:00:42;;;;;;;6.70;1.95;;;6.40;99.90;;;;;;5069407;28;20056;-82
2022/01/06 12:03:13;;;;;;;6.65;2.42;;;6.40;99.90;;;;;;5068798;28;20997;-82
2022/01/06 12:05:52;;;;;;;3.38;1.42;;;6.40;99.90;;;;;;5101367;27;20041;-83
2022/01/06 12:08:39;;;;;;;4.35;2.20;;;6.40;99.90;;;;;;5072060;28;20033;-82
2022/01/06 12:11:04;;;;;;;4.65;2.15;;;6.40;99.90;;;;;;5074441;28;20084;-82
2022/01/06 12:13:30;;;;;;;6.22;2.25;;;6.40;99.90;;;;;;5072510;28;20584;-82
2022/01/06 12:16:01;;;;;;;7.07;2.53;;;6.50;99.90;;;;;;5101422;27;20040;-83
2022/01/06 12:18:29;;;;;;;7.65;2.47;;;6.50;99.90;;;;;;5063328;28;20578;-83
2022/01/06 12:20:57;;;;;;;6.82;2.30;;;6.60;99.90;;;;;;5059509;28;20033;-84
2022/01/06 12:23:24;;;;;;;6.78;2.25;;;6.60;99.90;;;;;;5058472;28;20037;-84
2022/01/06 12:26:03;;;;;;;5.43;1.85;;;6.70;99.90;;;;;;5072452;28;20044;-84
2022/01/06 12:28:32;;;;;;;5.80;2.13;;;6.70;99.90;;;;;;5090007;27;20065;-84
2022/01/06 12:31:00;;;;;;;5.18;2.20;;;6.70;99.90;;;;;;5064210;28;20074;-85
2022/01/06 12:33:27;;;;;;;6.22;2.50;;;6.60;99.90;;;;;;5069668;28;20094;-83
2022/01/06 12:35:55;;;;;;;6.85;2.03;;;6.60;99.90;;;;;;5091148;27;20048;-83
2022/01/06 12:38:27;;;;;;;5.00;3.10;;;6.50;99.90;;;;;;5060505;28;20049;-83
2022/01/06 12:40:54;;;;;;;7.95;2.58;;;6.40;99.90;;;;;;5056111;28;20554;-84
2022/01/06 12:43:22;;;;;;;5.93;3.35;;;6.30;99.90;;;;;;5059958;28;20530;-83
2022/01/06 12:46:04;;;;;;;10.18;4.53;;;6.30;99.90;;;;;;5058967;28;20437;-83
2022/01/06 12:48:31;;;;;;;10.90;4.50;;;6.40;99.90;;;;;;5077011;28;20033;-84
2022/01/06 12:50:58;;;;;;;6.00;3.17;;;6.50;99.90;;;;;;5062102;28;20049;-83
2022/01/06 12:53:33;;;;;;;7.13;2.97;;;6.60;99.90;;;;;;5060367;28;20054;-83
2022/01/06 12:55:59;;;;;;;3.30;2.30;;;6.70;99.90;;;;;;5063657;28;20038;-82
2022/01/06 12:58:28;;;;;;;7.30;2.20;;;6.70;99.90;;;;;;5091914;27;21049;-87
2022/01/06 13:01:01;;;;;;;4.20;2.53;;;6.80;99.90;;;;;;5075867;28;20166;-82
2022/01/06 13:03:32;;;;;;;6.13;3.15;;;6.80;99.90;;;;;;5063508;28;20110;-86
2022/01/06 13:05:59;;;;;;;5.53;1.85;;;6.90;99.90;;;;;;5075916;28;20095;-85
2022/01/06 13:08:25;;;;;;;4.78;2.47;;;7.00;99.90;;;;;;5070982;28;20033;-85
2022/01/06 13:11:07;;;;;;;4.18;2.30;;;7.00;99.90;;;;;;5070779;28;20044;-83
2022/01/06 13:13:52;;;;;;;;;;;7.00;99.90;;;;;;5063727;28;20126;-83
2022/01/06 13:16:29;;;;;;;8.57;1.98;;;7.00;99.90;;;;;;5081879;28;20452;-85
2022/01/06 13:18:57;;;;;;;6.25;2.33;;;6.90;99.90;;;;;;5069496;28;20051;-84
2022/01/06 13:21:36;;;;;;;4.78;1.80;;;6.80;99.90;;;;;;5066797;28;20128;-85
2022/01/06 13:24:26;;;;;;;5.25;1.80;;;6.60;99.90;;;;;;5065370;28;20033;-85
2022/01/06 13:26:53;;;;;;;4.90;2.88;;;6.50;99.90;;;;;;5065339;28;20041;-84
2022/01/06 13:29:36;;;;;;;4.15;1.40;;;6.40;99.90;;;;;;5065297;28;20090;-85
2022/01/06 13:32:20;;;;;;;6.00;1.40;;;6.30;99.90;;;;;;5071456;28;20055;-85
2022/01/06 13:34:47;;;;;;;4.55;1.40;;;6.30;99.90;;;;;;5065828;28;20049;-84